createdAt,value
2023-04-23T00:00:13.944Z,98915.34
2023-04-23T00:02:46.465Z,98918.14
2023-04-23T00:05:14.368Z,98923.11
2023-04-23T00:07:42.336Z,98927.49
2023-04-23T00:10:10.202Z,98931.35
2023-04-23T00:12:38.068Z,98936.34
2023-04-23T00:15:06.659Z,98940.83
2023-04-23T00:17:34.359Z,98944.63
2023-04-23T00:20:01.712Z,98948.88
2023-04-23T00:22:29.643Z,98949.98
2023-04-23T00:24:56.821Z,98950.10
2023-04-23T00:27:23.938Z,98956.65
2023-04-23T00:29:51.473Z,98954.85
2023-04-23T00:32:19.197Z,98962.26
2023-04-23T00:34:48.384Z,98964.09
2023-04-23T00:37:15.856Z,98970.67
2023-04-23T00:39:43.581Z,98974.41
2023-04-23T00:42:16.768Z,98975.77
2023-04-23T00:44:44.364Z,98984.65
2023-04-23T00:47:12.085Z,98987.13
2023-04-23T00:49:39.551Z,98989.91
2023-04-23T00:52:06.768Z,98995.11
2023-04-23T00:54:34.596Z,98999.45
2023-04-23T00:57:02.019Z,99000.29
2023-04-23T00:59:29.403Z,99005.40
2023-04-23T01:01:57.854Z,99012.45
2023-04-23T01:04:25.831Z,99015.40
2023-04-23T01:06:53.379Z,99018.65
2023-04-23T01:09:20.844Z,99019.35
2023-04-23T01:11:48.398Z,99024.88
2023-04-23T01:14:16.053Z,99026.98
2023-04-23T01:16:43.491Z,99023.97
2023-04-23T01:19:11.380Z,99023.59
2023-04-23T01:21:41.107Z,99025.55
2023-04-23T01:24:08.769Z,99021.14
2023-04-23T01:26:36.015Z,99021.41
2023-04-23T01:29:03.446Z,99020.96
2023-04-23T01:31:32.185Z,99026.95
2023-04-23T01:33:59.772Z,99026.45
2023-04-23T01:36:27.464Z,99025.60
2023-04-23T01:38:54.817Z,99027.73
2023-04-23T01:41:22.178Z,99033.23
2023-04-23T01:43:50.086Z,99034.61
2023-04-23T01:46:18.025Z,99032.69
2023-04-23T01:48:45.565Z,99032.15
2023-04-23T01:51:12.820Z,99035.56
2023-04-23T01:53:40.484Z,99034.16
2023-04-23T01:56:09.507Z,99030.29
2023-04-23T01:58:37.643Z,99034.80
2023-04-23T02:01:05.609Z,99037.10
2023-04-23T02:03:33.715Z,99035.39
2023-04-23T02:06:01.424Z,99033.27
2023-04-23T02:08:29.006Z,99032.02
2023-04-23T02:10:56.769Z,99030.92
2023-04-23T02:13:23.984Z,99027.79
2023-04-23T02:15:51.334Z,99028.42
2023-04-23T02:18:18.787Z,99027.66
2023-04-23T02:20:46.374Z,99034.26
2023-04-23T02:23:13.958Z,99030.05
2023-04-23T02:25:43.049Z,99031.61
2023-04-23T02:28:12.867Z,99029.94
2023-04-23T02:30:45.547Z,99025.56
2023-04-23T02:33:12.789Z,99024.70
2023-04-23T02:35:40.656Z,99027.87
2023-04-23T02:38:08.243Z,99023.37
2023-04-23T02:40:36.593Z,99030.13
2023-04-23T02:43:04.153Z,99027.21
2023-04-23T02:45:31.825Z,99036.73
2023-04-23T02:48:00.481Z,99041.34
2023-04-23T02:50:27.953Z,99043.54
2023-04-23T02:52:55.823Z,99039.27
2023-04-23T02:55:24.877Z,99042.55
2023-04-23T02:57:52.477Z,99041.98
2023-04-23T03:00:19.958Z,99036.45
2023-04-23T03:02:47.555Z,99036.62
2023-04-23T03:05:15.441Z,99034.74
2023-04-23T03:07:43.024Z,99037.95
2023-04-23T03:10:10.689Z,99032.89
2023-04-23T03:12:39.056Z,99028.18
2023-04-23T03:15:07.046Z,99033.01
2023-04-23T03:17:38.300Z,99032.55
2023-04-23T03:20:08.311Z,99034.53
2023-04-23T03:22:36.386Z,99038.75
2023-04-23T03:25:04.221Z,99043.59
2023-04-23T03:27:32.021Z,99046.73
2023-04-23T03:29:59.770Z,99043.30
2023-04-23T03:32:27.364Z,99044.52
2023-04-23T03:34:55.001Z,99049.38
2023-04-23T03:37:22.969Z,99052.98
2023-04-23T03:39:50.810Z,99053.20
2023-04-23T03:42:18.565Z,99057.90
2023-04-23T03:44:46.027Z,99056.83
2023-04-23T03:47:13.428Z,99067.33
2023-04-23T03:49:41.047Z,99067.38
2023-04-23T03:52:09.216Z,99072.52
2023-04-23T03:54:38.700Z,99075.34
2023-04-23T03:57:12.021Z,99085.66
2023-04-23T03:59:51.025Z,99091.53
2023-04-23T04:02:19.184Z,99091.34
2023-04-23T04:04:49.560Z,99096.15
2023-04-23T04:07:17.851Z,99099.34
2023-04-23T04:09:46.650Z,99106.41
2023-04-23T04:12:15.601Z,99110.77
2023-04-23T04:14:43.690Z,99112.98
2023-04-23T04:17:12.093Z,99116.09
2023-04-23T04:19:39.758Z,99116.62
2023-04-23T04:22:06.991Z,99125.98
2023-04-23T04:24:35.120Z,99124.02
2023-04-23T04:27:02.784Z,99127.86
2023-04-23T04:29:30.985Z,99131.48
2023-04-23T04:31:58.898Z,99136.25
2023-04-23T04:34:27.416Z,99141.05
2023-04-23T04:36:54.668Z,99142.71
2023-04-23T04:39:22.077Z,99147.59
2023-04-23T04:41:51.272Z,99150.52
2023-04-23T04:44:19.048Z,99155.09
2023-04-23T04:46:48.554Z,99158.48
2023-04-23T04:49:19.055Z,99164.36
2023-04-23T04:51:47.136Z,99164.64
2023-04-23T04:54:15.110Z,99166.05
2023-04-23T04:56:43.025Z,99170.25
2023-04-23T04:59:10.687Z,99172.41
2023-04-23T05:01:38.261Z,99168.83
2023-04-23T05:04:06.115Z,99172.85
2023-04-23T05:06:33.667Z,99174.73
2023-04-23T05:09:01.022Z,99178.36
2023-04-23T05:11:28.582Z,99185.73
2023-04-23T05:13:56.353Z,99186.41
2023-04-23T05:16:26.712Z,99192.17
2023-04-23T05:18:54.235Z,99200.64
2023-04-23T05:21:22.093Z,99216.96
2023-04-23T05:23:49.983Z,99234.39
2023-04-23T05:26:17.834Z,99245.26
2023-04-23T05:28:45.285Z,99249.84
2023-04-23T05:31:13.193Z,99254.50
2023-04-23T05:33:49.335Z,99258.60
2023-04-23T05:36:18.095Z,99263.46
2023-04-23T05:38:46.182Z,99276.73
2023-04-23T05:41:13.826Z,99289.55
2023-04-23T05:43:41.378Z,99284.85
2023-04-23T05:46:09.230Z,99291.81
2023-04-23T05:48:36.919Z,99295.44
2023-04-23T05:51:04.116Z,99297.39
2023-04-23T05:53:31.436Z,99299.33
2023-04-23T05:55:59.212Z,99303.11
2023-04-23T05:58:26.644Z,99306.38
2023-04-23T06:00:54.391Z,99306.52
2023-04-23T06:03:22.028Z,99303.85
2023-04-23T06:05:49.722Z,99311.59
2023-04-23T06:08:17.011Z,99313.02
2023-04-23T06:10:44.533Z,99319.23
2023-04-23T06:13:12.129Z,99323.78
2023-04-23T06:15:39.192Z,99325.16
2023-04-23T06:18:06.398Z,99328.41
2023-04-23T06:20:35.164Z,99332.34
2023-04-23T06:23:02.627Z,99332.95
2023-04-23T06:25:30.294Z,99334.91
2023-04-23T06:27:57.964Z,99331.64
2023-04-23T06:30:26.333Z,99330.52
2023-04-23T06:32:53.939Z,99332.58
2023-04-23T06:35:21.460Z,99339.96
2023-04-23T06:37:48.774Z,99343.64
2023-04-23T06:40:16.019Z,99348.20
2023-04-23T06:42:45.065Z,99349.75
2023-04-23T06:45:19.373Z,99355.40
2023-04-23T06:47:48.894Z,99358.04
2023-04-23T06:50:16.263Z,99362.05
2023-04-23T06:52:44.016Z,99367.45
2023-04-23T06:55:11.586Z,99374.07
2023-04-23T06:57:39.609Z,99379.14
2023-04-23T07:00:08.718Z,99380.02
2023-04-23T07:02:38.850Z,99385.02
2023-04-23T07:05:06.289Z,99390.40
2023-04-23T07:07:38.979Z,99402.00
2023-04-23T07:10:07.495Z,99405.41
2023-04-23T07:12:35.297Z,99412.30
2023-04-23T07:15:03.929Z,99423.98
2023-04-23T07:17:33.462Z,99429.21
2023-04-23T07:20:06.525Z,99433.48
2023-04-23T07:22:34.619Z,99436.36
2023-04-23T07:25:02.272Z,99440.09
2023-04-23T07:27:30.735Z,99442.07
2023-04-23T07:29:58.017Z,99443.84
2023-04-23T07:32:27.805Z,99449.11
2023-04-23T07:34:56.130Z,99447.23
2023-04-23T07:37:24.486Z,99444.67
2023-04-23T07:39:54.093Z,99448.45
2023-04-23T07:42:21.554Z,99448.66
2023-04-23T07:44:51.429Z,99448.10
2023-04-23T07:47:18.882Z,99451.96
2023-04-23T07:49:46.340Z,99453.72
2023-04-23T07:52:15.130Z,99456.61
2023-04-23T07:54:43.406Z,99455.94
2023-04-23T07:57:11.879Z,99455.38
2023-04-23T07:59:39.608Z,99453.98
2023-04-23T08:02:08.404Z,99460.55
2023-04-23T08:04:36.271Z,99457.75
2023-04-23T08:07:05.186Z,99455.98
2023-04-23T08:09:33.404Z,99457.59
2023-04-23T08:12:02.152Z,99456.13
2023-04-23T08:14:31.263Z,99452.34
2023-04-23T08:16:59.202Z,99451.90
2023-04-23T08:19:31.185Z,99452.70
2023-04-23T08:21:58.522Z,99454.95
2023-04-23T08:24:26.902Z,99453.73
2023-04-23T08:26:55.495Z,99448.73
2023-04-23T08:29:24.917Z,99449.02
2023-04-23T08:31:52.642Z,99444.39
2023-04-23T08:34:20.203Z,99446.64
2023-04-23T08:36:49.046Z,99447.02
2023-04-23T08:39:16.670Z,99448.10
2023-04-23T08:41:44.319Z,99445.58
2023-04-23T08:44:28.260Z,99442.26
2023-04-23T08:46:55.924Z,99444.98
2023-04-23T08:49:23.877Z,99446.39
2023-04-23T08:51:54.312Z,99440.80
2023-04-23T09:45:47.227Z,99417.16
2023-04-23T09:48:14.568Z,99413.09
2023-04-23T09:50:41.907Z,99407.93
2023-04-23T09:53:10.613Z,99405.08
2023-04-23T09:55:38.605Z,99402.29
2023-04-23T09:58:12.278Z,99399.33
2023-04-23T10:00:40.183Z,99401.70
2023-04-23T10:03:09.295Z,99400.81
2023-04-23T10:06:03.861Z,99399.44
2023-04-23T10:08:31.989Z,99398.53
2023-04-23T10:11:09.991Z,99389.42
2023-04-23T10:13:46.764Z,99390.36
2023-04-23T10:16:22.333Z,99390.16
2023-04-23T10:18:54.826Z,99397.45
2023-04-23T10:21:24.187Z,99396.25
2023-04-23T10:23:53.082Z,99397.27
2023-04-23T10:26:21.435Z,99404.71
2023-04-23T10:28:50.347Z,99406.55
2023-04-23T10:31:17.629Z,99406.33
2023-04-23T10:33:56.098Z,99404.12
2023-04-23T10:36:27.836Z,99405.02
2023-04-23T10:39:00.158Z,99402.92
2023-04-23T10:41:28.832Z,99407.15
2023-04-23T10:43:56.248Z,99407.93
2023-04-23T10:46:30.587Z,99413.51
2023-04-23T10:49:19.254Z,99416.67
2023-04-23T10:52:17.767Z,99424.30
2023-04-23T10:54:35.979Z,99419.71
2023-04-23T10:57:04.465Z,99419.84
2023-04-23T10:59:32.429Z,99417.80
2023-04-23T11:02:06.779Z,99414.11
2023-04-23T11:04:35.532Z,99410.52
2023-04-23T11:07:07.151Z,99416.64
2023-04-23T11:09:42.400Z,99419.14
2023-04-23T11:12:11.178Z,99413.56
2023-04-23T11:14:41.607Z,99410.89
2023-04-23T11:17:12.829Z,99410.94
2023-04-23T11:19:43.063Z,99401.31
2023-04-23T11:22:21.256Z,99399.11
2023-04-23T11:25:08.746Z,99396.55
2023-04-23T11:27:39.478Z,99394.14
2023-04-23T11:30:17.016Z,99391.80
2023-04-23T11:32:45.685Z,99393.23
2023-04-23T11:35:13.920Z,99382.49
2023-04-23T11:37:41.896Z,99380.29
2023-04-23T11:40:10.786Z,99377.27
2023-04-23T11:42:47.640Z,99372.80
2023-04-23T11:45:15.533Z,99367.06
2023-04-23T11:47:45.697Z,99365.87
2023-04-23T11:50:19.616Z,99366.98
2023-04-23T11:52:46.836Z,99369.11
2023-04-23T11:55:14.320Z,99368.98
2023-04-23T11:57:48.816Z,99367.42
2023-04-23T12:00:20.693Z,99359.33
2023-04-23T12:02:50.958Z,99359.77
2023-04-23T12:05:38.472Z,99353.95
2023-04-23T12:08:06.741Z,99353.77
2023-04-23T12:10:35.358Z,99346.42
2023-04-23T12:13:03.123Z,99346.60
2023-04-23T12:15:30.887Z,99346.64
2023-04-23T12:18:11.687Z,99342.96
2023-04-23T12:20:40.063Z,99346.46
2023-04-23T12:23:07.965Z,99336.38
2023-04-23T12:25:35.793Z,99335.45
2023-04-23T12:28:07.017Z,99333.45
2023-04-23T12:30:42.463Z,99334.46
2023-04-23T12:33:10.464Z,99340.51
2023-04-23T12:35:46.367Z,99339.39
2023-04-23T12:38:24.182Z,99338.39
2023-04-23T12:40:52.655Z,99337.33
2023-04-23T12:43:20.228Z,99336.86
2023-04-23T12:45:47.878Z,99335.70
2023-04-23T12:48:16.154Z,99336.48
2023-04-23T12:50:47.912Z,99333.36
2023-04-23T12:53:15.427Z,99328.27
2023-04-23T12:55:45.245Z,99330.16
2023-04-23T12:58:13.629Z,99334.29
2023-04-23T13:00:40.943Z,99330.18
2023-04-23T13:03:08.754Z,99335.53
2023-04-23T13:05:36.447Z,99335.10
2023-04-23T13:08:03.827Z,99340.98
2023-04-23T13:10:32.274Z,99350.14
2023-04-23T13:12:59.833Z,99358.81
2023-04-23T13:15:27.543Z,99361.27
2023-04-23T13:17:55.305Z,99368.75
2023-04-23T13:20:24.779Z,99373.20
2023-04-23T13:22:52.454Z,99382.97
2023-04-23T13:25:20.193Z,99383.52
2023-04-23T13:27:47.851Z,99382.83
2023-04-23T13:30:18.246Z,99382.31
2023-04-23T13:32:45.883Z,99388.19
2023-04-23T13:35:16.263Z,99393.70
2023-04-23T13:37:43.775Z,99395.23
2023-04-23T13:40:11.784Z,99392.80
2023-04-23T13:42:39.568Z,99392.05
2023-04-23T13:45:07.627Z,99394.36
2023-04-23T13:47:34.976Z,99392.63
2023-04-23T13:50:05.545Z,99396.02
2023-04-23T13:52:33.677Z,99402.08
2023-04-23T13:55:03.272Z,99398.08
2023-04-23T13:57:31.018Z,99402.14
2023-04-23T13:59:59.813Z,99407.09
2023-04-23T14:02:27.338Z,99405.91
2023-04-23T14:04:55.411Z,99408.23
2023-04-23T14:07:23.847Z,99404.01
2023-04-23T14:09:52.537Z,99405.82
2023-04-23T14:12:20.292Z,99409.63
2023-04-23T14:14:47.752Z,99408.78
2023-04-23T14:17:15.720Z,99408.42
2023-04-23T14:19:44.198Z,99408.67
2023-04-23T14:22:11.866Z,99407.14
2023-04-23T14:24:40.861Z,99408.30
2023-04-23T14:27:07.866Z,99409.02
2023-04-23T14:29:37.405Z,99408.40
2023-04-23T14:32:08.724Z,99405.79
2023-04-23T14:34:37.247Z,99408.70
2023-04-23T14:37:04.920Z,99406.60
2023-04-23T14:39:34.503Z,99407.52
2023-04-23T14:42:02.913Z,99408.98
2023-04-23T14:44:30.344Z,99405.69
2023-04-23T14:47:00.272Z,99406.38
2023-04-23T14:49:28.842Z,99403.92
2023-04-23T14:51:57.692Z,99399.39
2023-04-23T14:54:25.244Z,99399.68
2023-04-23T14:56:52.674Z,99393.80
2023-04-23T14:59:20.813Z,99392.92
2023-04-23T15:01:48.692Z,99389.50
2023-04-23T15:04:18.194Z,99390.83
2023-04-23T15:06:45.431Z,99390.84
2023-04-23T15:09:13.622Z,99392.04
2023-04-23T15:11:42.908Z,99392.25
2023-04-23T15:14:20.397Z,99390.14
2023-04-23T15:16:49.677Z,99385.71
2023-04-23T15:19:17.636Z,99385.04
2023-04-23T15:21:45.980Z,99382.64
2023-04-23T15:24:14.037Z,99381.68
2023-04-23T15:26:42.090Z,99384.46
2023-04-23T15:29:09.830Z,99379.73
2023-04-23T15:31:37.615Z,99376.81
2023-04-23T15:34:07.877Z,99372.38
2023-04-23T15:36:36.932Z,99371.22
2023-04-23T15:39:05.125Z,99373.65
2023-04-23T15:41:32.883Z,99374.23
2023-04-23T15:44:01.456Z,99369.48
2023-04-23T15:46:29.427Z,99370.58
2023-04-23T15:48:56.876Z,99369.37
2023-04-23T15:51:24.342Z,99373.29
2023-04-23T15:53:51.683Z,99371.41
2023-04-23T15:56:22.843Z,99377.23
2023-04-23T15:58:50.190Z,99381.08
2023-04-23T16:01:17.683Z,99381.95
2023-04-23T16:03:57.972Z,99376.97
2023-04-23T16:06:35.096Z,99375.96
2023-04-23T16:09:06.049Z,99371.17
2023-04-23T16:11:34.498Z,99366.39
2023-04-23T16:14:01.952Z,99359.37
2023-04-23T16:16:30.444Z,99360.77
2023-04-23T16:18:57.984Z,99357.31
2023-04-23T16:21:27.695Z,99351.65
2023-04-23T16:23:55.374Z,99345.50
2023-04-23T16:26:22.826Z,99347.65
2023-04-23T16:29:01.006Z,99341.86
2023-04-23T16:31:38.929Z,99339.90
2023-04-23T16:34:07.628Z,99336.59
2023-04-23T16:36:35.365Z,99331.58
2023-04-23T16:39:03.870Z,99328.13
2023-04-23T16:41:32.038Z,99325.09
2023-04-23T16:43:59.429Z,99324.29
2023-04-23T16:46:29.590Z,99328.10
2023-04-23T16:48:57.327Z,99329.14
2023-04-23T16:51:26.071Z,99330.90
2023-04-23T16:53:53.849Z,99328.89
2023-04-23T16:56:22.221Z,99331.91
2023-04-23T16:58:50.379Z,99329.36
2023-04-23T17:01:17.816Z,99325.23
2023-04-23T17:03:45.560Z,99321.27
2023-04-23T17:06:30.797Z,99320.27
2023-04-23T17:08:58.624Z,99315.05
2023-04-23T17:11:26.651Z,99313.85
2023-04-23T17:13:57.002Z,99314.35
2023-04-23T17:16:27.235Z,99316.01
2023-04-23T17:18:54.622Z,99314.17
2023-04-23T17:21:23.718Z,99314.09
2023-04-23T17:23:50.910Z,99320.09
2023-04-23T17:26:18.821Z,99318.34
2023-04-23T17:28:46.172Z,99320.33
2023-04-23T17:31:15.731Z,99322.46
2023-04-23T17:33:45.090Z,99327.35
2023-04-23T17:36:12.621Z,99324.45
2023-04-23T17:38:41.020Z,99323.83
2023-04-23T17:41:09.199Z,99322.69
2023-04-23T17:43:36.871Z,99316.98
2023-04-23T17:46:04.864Z,99310.44
2023-04-23T17:48:32.548Z,99309.27
2023-04-23T17:50:59.727Z,99307.55
2023-04-23T17:53:28.942Z,99307.71
2023-04-23T17:55:59.971Z,99306.60
2023-04-23T17:58:47.610Z,99302.77
2023-04-23T18:01:17.869Z,99305.34
2023-04-23T18:03:45.440Z,99304.39
2023-04-23T18:06:13.339Z,99307.10
2023-04-23T18:08:42.612Z,99316.41
2023-04-23T18:11:10.315Z,99318.84
2023-04-23T18:13:37.764Z,99321.44
2023-04-23T18:16:05.220Z,99318.57
2023-04-23T18:18:33.087Z,99317.38
2023-04-23T18:21:02.386Z,99317.73
2023-04-23T18:23:30.930Z,99324.89
2023-04-23T18:26:03.445Z,99322.47
2023-04-23T18:28:32.495Z,99325.71
2023-04-23T18:31:01.964Z,99318.66
2023-04-23T18:33:31.601Z,99315.02
2023-04-23T18:36:04.150Z,99313.97
2023-04-23T18:38:39.479Z,99302.11
2023-04-23T18:41:06.834Z,99294.38
2023-04-23T18:43:34.701Z,99282.42
2023-04-23T18:46:02.283Z,99279.25
2023-04-23T18:48:32.750Z,99270.12
2023-04-23T18:51:08.601Z,99264.11
2023-04-23T18:53:38.453Z,99257.02
2023-04-23T18:56:10.106Z,99251.58
2023-04-23T18:58:39.098Z,99244.78
2023-04-23T19:01:06.342Z,99238.15
2023-04-23T19:03:35.691Z,99225.25
2023-04-23T19:06:07.118Z,99222.16
2023-04-23T19:08:37.646Z,99217.52
2023-04-23T19:11:04.738Z,99214.88
2023-04-23T19:13:32.392Z,99216.90
2023-04-23T19:16:00.031Z,99212.56
2023-04-23T19:18:27.757Z,99212.63
2023-04-23T19:20:55.698Z,99210.73
2023-04-23T19:23:22.864Z,99213.28
2023-04-23T19:25:51.361Z,99214.67
2023-04-23T19:28:19.462Z,99213.70
2023-04-23T19:30:48.226Z,99215.69
2023-04-23T19:33:15.975Z,99211.86
2023-04-23T19:35:43.286Z,99210.46
2023-04-23T19:38:10.695Z,99209.54
2023-04-23T19:40:39.352Z,99210.44
2023-04-23T19:43:07.043Z,99211.16
2023-04-23T19:45:34.492Z,99216.95
2023-04-23T19:48:04.146Z,99214.61
2023-04-23T19:50:31.885Z,99216.02
2023-04-23T19:52:59.395Z,99214.61
2023-04-23T19:55:27.393Z,99217.61
2023-04-23T19:57:55.573Z,99218.70
2023-04-23T20:00:23.526Z,99218.27
2023-04-23T20:03:11.197Z,99223.13
2023-04-23T20:05:38.835Z,99225.09
2023-04-23T20:08:14.265Z,99219.77
2023-04-23T20:10:42.020Z,99216.73
2023-04-23T20:13:09.337Z,99217.92
2023-04-23T20:15:37.176Z,99209.47
2023-04-23T20:18:05.646Z,99202.24
2023-04-23T20:20:33.592Z,99201.96
2023-04-23T20:23:01.562Z,99198.70
2023-04-23T20:25:29.305Z,99192.86
2023-04-23T20:27:56.782Z,99189.34
2023-04-23T20:30:24.447Z,99184.23
2023-04-23T20:32:52.088Z,99182.33
2023-04-23T20:35:19.572Z,99183.44
2023-04-23T20:37:47.737Z,99178.48
2023-04-23T20:40:15.394Z,99175.83
2023-04-23T20:42:42.899Z,99175.84
2023-04-23T20:45:11.217Z,99175.91
2023-04-23T20:47:38.755Z,99171.52
2023-04-23T20:50:06.440Z,99170.88
2023-04-23T20:52:34.223Z,99172.03
2023-04-23T20:55:01.672Z,99172.05
2023-04-23T20:57:29.233Z,99174.02
2023-04-23T20:59:56.586Z,99177.38
2023-04-23T21:02:23.989Z,99176.77
2023-04-23T21:04:51.190Z,99180.04
2023-04-23T21:07:18.929Z,99178.70
2023-04-23T21:09:46.614Z,99179.48
2023-04-23T21:12:13.965Z,99176.59
2023-04-23T21:14:41.742Z,99177.77
2023-04-23T21:17:09.140Z,99173.40
2023-04-23T21:19:37.053Z,99173.75
2023-04-23T21:22:04.411Z,99171.40
2023-04-23T21:24:31.870Z,99173.40
2023-04-23T21:26:59.341Z,99170.19
2023-04-23T21:29:26.882Z,99172.20
2023-04-23T21:31:54.602Z,99173.73
2023-04-23T21:34:21.792Z,99172.96
2023-04-23T21:36:49.454Z,99176.92
2023-04-23T21:39:16.871Z,99175.90
2023-04-23T21:41:45.044Z,99184.52
2023-04-23T21:44:12.543Z,99184.02
2023-04-23T21:46:40.841Z,99191.75
2023-04-23T21:49:08.783Z,99197.55
2023-04-23T21:51:36.552Z,99195.39
2023-04-23T21:54:05.333Z,99201.80
2023-04-23T21:56:33.203Z,99205.55
2023-04-23T21:59:01.097Z,99208.22
2023-04-23T22:01:28.691Z,99209.16
2023-04-23T22:03:56.395Z,99213.68
2023-04-23T22:06:25.077Z,99210.30
2023-04-23T22:08:54.241Z,99213.42
2023-04-23T22:11:22.086Z,99216.96
2023-04-23T22:13:49.451Z,99212.85
2023-04-23T22:16:27.300Z,99212.03
2023-04-23T22:18:56.503Z,99213.20
2023-04-23T22:21:23.869Z,99210.64
2023-04-23T22:23:51.199Z,99212.39
2023-04-23T22:26:18.720Z,99210.13
2023-04-23T22:28:46.018Z,99214.77
2023-04-23T22:31:16.982Z,99217.24
2023-04-23T22:33:44.310Z,99216.43
2023-04-23T22:36:11.728Z,99222.00
2023-04-23T22:38:39.432Z,99220.23
2023-04-23T22:41:07.194Z,99220.83
2023-04-23T22:43:34.682Z,99223.42
2023-04-23T22:46:03.264Z,99224.19
2023-04-23T22:48:31.501Z,99222.33
2023-04-23T22:50:58.908Z,99224.41
2023-04-23T22:53:26.307Z,99224.29
2023-04-23T22:55:53.669Z,99225.64
2023-04-23T22:58:21.223Z,99225.55
2023-04-23T23:00:48.179Z,99225.42
2023-04-23T23:03:16.092Z,99229.12
2023-04-23T23:05:43.698Z,99232.52
2023-04-23T23:08:11.052Z,99230.05
2023-04-23T23:10:39.330Z,99229.67
2023-04-23T23:13:06.996Z,99228.15
2023-04-23T23:15:34.259Z,99229.24
2023-04-23T23:18:02.135Z,99220.48
2023-04-23T23:20:29.648Z,99222.56
2023-04-23T23:22:56.934Z,99225.35
2023-04-23T23:25:24.374Z,99226.39
2023-04-23T23:27:51.763Z,99226.20
2023-04-23T23:30:19.182Z,99231.20
2023-04-23T23:32:46.545Z,99225.86
2023-04-23T23:35:14.097Z,99227.98
2023-04-23T23:37:41.458Z,99230.79
2023-04-23T23:40:10.247Z,99229.61
2023-04-23T23:42:37.834Z,99228.38
2023-04-23T23:45:05.672Z,99223.27
2023-04-23T23:47:32.985Z,99223.93
2023-04-23T23:50:00.267Z,99220.46
2023-04-23T23:52:27.365Z,99224.59
2023-04-23T23:54:54.710Z,99223.70
2023-04-23T23:57:22.133Z,99225.12
2023-04-23T23:59:49.789Z,99225.61
